RPA5865 KMKE-KBOS
Flight info
| Callsign | RPA5865 |
|---|---|
| Flight time | N/A |
| Altitude | 37000 |
| Route | SQUIB HAUCK HRRSH HOCKE Q935 PONCT JFUND2 |
| Aircraft | E75L/M-SDE3GILORVW/S |
Departure
| Time | 2026-05-03 23:33 |
|---|---|
| Airport | General Mitchell International Airport (KMKE) |
Arrival
| Time | N/A |
|---|---|
| Airport | Boston Logan International Airport (KBOS) |
| Time | Latitude | Longitude | Altitude | Speed | Heading |
|---|---|---|---|---|---|
| 2026-05-03 23:10 | 42.94799 | -87.89927 | 677 ft | 0 kts | 130° |
| 2026-05-03 23:23 | 42.94798 | -87.89926 | 677 ft | 0 kts | 130° |
| 2026-05-03 23:23 | 42.94798 | -87.89925 | 677 ft | 0 kts | 131° |
| 2026-05-03 23:24 | 42.94800 | -87.89928 | 677 ft | 2 kts | 131° |
| 2026-05-03 23:24 | 42.94810 | -87.89945 | 677 ft | 2 kts | 130° |
| 2026-05-03 23:24 | 42.94820 | -87.89960 | 677 ft | 2 kts | 130° |
| 2026-05-03 23:24 | 42.94830 | -87.89975 | 677 ft | 2 kts | 130° |
| 2026-05-03 23:25 | 42.94839 | -87.89990 | 677 ft | 2 kts | 130° |
| 2026-05-03 23:25 | 42.94849 | -87.90005 | 677 ft | 2 kts | 130° |
| 2026-05-03 23:25 | 42.94858 | -87.90020 | 677 ft | 0 kts | 130° |
| 2026-05-03 23:25 | 42.94863 | -87.90032 | 677 ft | 2 kts | 96° |
| 2026-05-03 23:26 | 42.94860 | -87.90049 | 677 ft | 1 kts | 51° |
| 2026-05-03 23:26 | 42.94859 | -87.90051 | 677 ft | 0 kts | 51° |
| 2026-05-03 23:27 | 42.94863 | -87.90044 | 677 ft | 3 kts | 51° |
| 2026-05-03 23:28 | 42.94886 | -87.90006 | 676 ft | 7 kts | 51° |
| 2026-05-03 23:28 | 42.94934 | -87.89954 | 675 ft | 10 kts | 32° |
| 2026-05-03 23:28 | 42.94978 | -87.89861 | 675 ft | 13 kts | 71° |
| 2026-05-03 23:28 | 42.94953 | -87.89737 | 675 ft | 15 kts | 133° |
| 2026-05-03 23:29 | 42.94853 | -87.89712 | 675 ft | 15 kts | 185° |
| 2026-05-03 23:29 | 42.94786 | -87.89707 | 676 ft | 7 kts | 159° |
| 2026-05-03 23:29 | 42.94751 | -87.89648 | 675 ft | 9 kts | 133° |
| 2026-05-03 23:29 | 42.94686 | -87.89635 | 676 ft | 10 kts | 186° |
| 2026-05-03 23:30 | 42.94626 | -87.89600 | 676 ft | 11 kts | 98° |
| 2026-05-03 23:30 | 42.94616 | -87.89475 | 676 ft | 14 kts | 96° |
| 2026-05-03 23:30 | 42.94620 | -87.89327 | 675 ft | 17 kts | 71° |
| 2026-05-03 23:30 | 42.94661 | -87.89156 | 675 ft | 20 kts | 72° |
| 2026-05-03 23:31 | 42.94708 | -87.88970 | 675 ft | 10 kts | 72° |
| 2026-05-03 23:31 | 42.94717 | -87.88905 | 675 ft | 5 kts | 114° |
| 2026-05-03 23:31 | 42.94684 | -87.88875 | 675 ft | 5 kts | 158° |
| 2026-05-03 23:31 | 42.94646 | -87.88866 | 675 ft | 6 kts | 187° |
| 2026-05-03 23:32 | 42.94609 | -87.88911 | 675 ft | 8 kts | 252° |
| 2026-05-03 23:32 | 42.94567 | -87.89092 | 675 ft | 45 kts | 251° |
| 2026-05-03 23:32 | 42.94402 | -87.89746 | 679 ft | 98 kts | 250° |
| 2026-05-03 23:32 | 42.94142 | -87.90825 | 715 ft | 135 kts | 253° |
| 2026-05-03 23:33 | 42.93871 | -87.92050 | 1133 ft | 138 kts | 252° |
| 2026-05-03 23:33 | 42.93551 | -87.93340 | 1430 ft | 153 kts | 237° |
| 2026-05-03 23:33 | 42.92651 | -87.94181 | 1807 ft | 173 kts | 201° |
| 2026-05-03 23:33 | 42.91396 | -87.94177 | 2140 ft | 190 kts | 172° |
| 2026-05-03 23:34 | 42.90131 | -87.93166 | 2101 ft | 233 kts | 136° |
| 2026-05-03 23:34 | 42.89339 | -87.91136 | 2322 ft | 257 kts | 104° |
| 2026-05-03 23:34 | 42.89077 | -87.88770 | 2801 ft | 255 kts | 94° |
| 2026-05-03 23:34 | 42.89300 | -87.86381 | 3361 ft | 262 kts | 64° |
| 2026-05-03 23:35 | 42.90182 | -87.84074 | 3807 ft | 280 kts | 59° |
| 2026-05-03 23:35 | 42.91136 | -87.81712 | 4383 ft | 292 kts | 59° |
| 2026-05-03 23:35 | 42.92109 | -87.79260 | 5145 ft | 296 kts | 63° |
| 2026-05-03 23:35 | 42.92737 | -87.76620 | 5946 ft | 299 kts | 77° |
| 2026-05-03 23:36 | 42.93001 | -87.73791 | 6758 ft | 300 kts | 84° |
| 2026-05-03 23:36 | 42.93093 | -87.70991 | 7532 ft | 301 kts | 87° |
| 2026-05-03 23:36 | 42.93108 | -87.68101 | 8254 ft | 304 kts | 88° |
| 2026-05-03 23:36 | 42.93086 | -87.65211 | 8943 ft | 308 kts | 89° |
| 2026-05-03 23:37 | 42.93047 | -87.62283 | 9734 ft | 310 kts | 88° |
| 2026-05-03 23:37 | 42.93002 | -87.59382 | 10454 ft | 312 kts | 89° |
| 2026-05-03 23:37 | 42.92952 | -87.56422 | 11106 ft | 316 kts | 88° |
| 2026-05-03 23:37 | 42.92899 | -87.53415 | 11711 ft | 321 kts | 89° |
| 2026-05-03 23:38 | 42.92843 | -87.50343 | 12368 ft | 324 kts | 89° |
| 2026-05-03 23:38 | 42.92786 | -87.47287 | 12967 ft | 327 kts | 88° |
| 2026-05-03 23:38 | 42.92728 | -87.44167 | 13611 ft | 330 kts | 88° |
| 2026-05-03 23:38 | 42.92668 | -87.41022 | 14228 ft | 335 kts | 88° |
| 2026-05-03 23:39 | 42.92606 | -87.37833 | 14817 ft | 338 kts | 88° |
| 2026-05-03 23:39 | 42.92544 | -87.34621 | 15301 ft | 346 kts | 89° |
| 2026-05-03 23:39 | 42.92478 | -87.31271 | 15517 ft | 362 kts | 89° |
| 2026-05-03 23:39 | 42.92407 | -87.27762 | 15898 ft | 372 kts | 89° |
| 2026-05-03 23:40 | 42.92334 | -87.24235 | 16424 ft | 376 kts | 89° |
| 2026-05-03 23:40 | 42.92259 | -87.20644 | 17007 ft | 379 kts | 89° |
| 2026-05-03 23:40 | 42.92183 | -87.17058 | 17621 ft | 381 kts | 89° |
| 2026-05-03 23:40 | 42.92106 | -87.13449 | 18181 ft | 384 kts | 89° |
| 2026-05-03 23:41 | 42.92027 | -87.09797 | 18738 ft | 386 kts | 89° |
| 2026-05-03 23:41 | 42.91962 | -87.06116 | 19270 ft | 389 kts | 86° |
| 2026-05-03 23:41 | 42.92090 | -87.02416 | 19809 ft | 391 kts | 84° |
| 2026-05-03 23:41 | 42.92182 | -86.99859 | 20136 ft | 394 kts | 84° |
| 2026-05-03 23:42 | 42.92311 | -86.96106 | 20651 ft | 398 kts | 84° |
| 2026-05-03 23:42 | 42.92438 | -86.92319 | 21197 ft | 400 kts | 84° |
| 2026-05-03 23:42 | 42.92564 | -86.88537 | 21709 ft | 403 kts | 84° |
| 2026-05-03 23:42 | 42.92688 | -86.84752 | 22218 ft | 405 kts | 84° |
| 2026-05-03 23:43 | 42.92800 | -86.81294 | 22687 ft | 407 kts | 84° |
| 2026-05-03 23:43 | 42.92925 | -86.77415 | 23140 ft | 411 kts | 84° |
| 2026-05-03 23:43 | 42.93048 | -86.73528 | 23642 ft | 413 kts | 84° |
| 2026-05-03 23:43 | 42.93172 | -86.69611 | 24133 ft | 416 kts | 84° |
| 2026-05-03 23:44 | 42.93295 | -86.65642 | 24601 ft | 418 kts | 84° |
| 2026-05-03 23:44 | 42.93416 | -86.61719 | 25068 ft | 421 kts | 84° |
| 2026-05-03 23:44 | 42.93537 | -86.57744 | 25527 ft | 423 kts | 84° |
| 2026-05-03 23:44 | 42.93658 | -86.53710 | 25976 ft | 426 kts | 84° |
| 2026-05-03 23:45 | 42.93778 | -86.49664 | 26417 ft | 428 kts | 84° |
| 2026-05-03 23:45 | 42.93897 | -86.45609 | 26825 ft | 431 kts | 84° |
| 2026-05-03 23:45 | 42.94016 | -86.41526 | 27219 ft | 434 kts | 84° |
| 2026-05-03 23:45 | 42.94134 | -86.37388 | 27628 ft | 437 kts | 84° |
| 2026-05-03 23:46 | 42.94251 | -86.33260 | 28026 ft | 439 kts | 84° |
| 2026-05-03 23:46 | 42.94367 | -86.29109 | 28419 ft | 442 kts | 84° |
| 2026-05-03 23:46 | 42.94484 | -86.24886 | 28817 ft | 444 kts | 84° |
| 2026-05-03 23:46 | 42.94598 | -86.20689 | 29207 ft | 446 kts | 84° |
| 2026-05-03 23:47 | 42.94711 | -86.16453 | 29562 ft | 449 kts | 84° |
| 2026-05-03 23:47 | 42.94825 | -86.12150 | 29940 ft | 451 kts | 84° |
| 2026-05-03 23:47 | 42.94937 | -86.07856 | 30297 ft | 454 kts | 84° |
| 2026-05-03 23:47 | 42.95037 | -86.03960 | 30606 ft | 456 kts | 84° |
| 2026-05-03 23:48 | 42.95146 | -85.99661 | 30939 ft | 459 kts | 84° |
| 2026-05-03 23:48 | 42.95255 | -85.95306 | 31265 ft | 461 kts | 84° |
| 2026-05-03 23:48 | 42.95320 | -85.92660 | 31440 ft | 463 kts | 84° |
| 2026-05-03 23:48 | 42.95425 | -85.88339 | 31748 ft | 465 kts | 84° |
| 2026-05-03 23:49 | 42.95533 | -85.83858 | 32045 ft | 467 kts | 84° |
| 2026-05-03 23:49 | 42.95639 | -85.79373 | 32357 ft | 468 kts | 84° |
| 2026-05-03 23:49 | 42.95742 | -85.74954 | 32626 ft | 471 kts | 84° |
| 2026-05-03 23:49 | 42.95844 | -85.70493 | 32896 ft | 472 kts | 84° |
| 2026-05-03 23:50 | 42.95944 | -85.66002 | 33176 ft | 475 kts | 84° |
| 2026-05-03 23:50 | 42.96011 | -85.62981 | 33341 ft | 476 kts | 84° |
| 2026-05-03 23:50 | 42.96126 | -85.57688 | 33609 ft | 479 kts | 84° |
| 2026-05-03 23:50 | 42.96223 | -85.53136 | 33805 ft | 482 kts | 85° |
| 2026-05-03 23:51 | 42.96319 | -85.48541 | 33998 ft | 484 kts | 85° |
| 2026-05-03 23:51 | 42.96414 | -85.43922 | 34210 ft | 486 kts | 84° |
| 2026-05-03 23:51 | 42.96505 | -85.39372 | 34405 ft | 487 kts | 85° |
| 2026-05-03 23:51 | 42.96597 | -85.34747 | 34587 ft | 489 kts | 85° |
| 2026-05-03 23:52 | 42.96687 | -85.30074 | 34776 ft | 490 kts | 85° |
| 2026-05-03 23:52 | 42.96775 | -85.25429 | 34929 ft | 492 kts | 85° |
| 2026-05-03 23:52 | 42.96860 | -85.20812 | 35086 ft | 494 kts | 85° |
| 2026-05-03 23:52 | 42.96945 | -85.16122 | 35219 ft | 496 kts | 85° |
| 2026-05-03 23:53 | 42.97029 | -85.11384 | 35375 ft | 497 kts | 85° |
| 2026-05-03 23:53 | 42.97104 | -85.07632 | 35492 ft | 497 kts | 83° |
| 2026-05-03 23:53 | 42.98482 | -84.98453 | 35712 ft | 491 kts | 66° |
| 2026-05-03 23:54 | 43.00451 | -84.90402 | 35925 ft | 493 kts | 68° |
| 2026-05-03 23:54 | 43.02556 | -84.81422 | 36114 ft | 496 kts | 68° |
| 2026-05-03 23:55 | 43.04653 | -84.72414 | 36294 ft | 498 kts | 68° |
| 2026-05-03 23:55 | 43.06576 | -84.64122 | 36454 ft | 500 kts | 68° |
| 2026-05-03 23:56 | 43.08666 | -84.55074 | 36577 ft | 503 kts | 68° |
| 2026-05-03 23:56 | 43.10757 | -84.45982 | 36690 ft | 504 kts | 68° |
| 2026-05-03 23:57 | 43.12860 | -84.36803 | 36796 ft | 504 kts | 68° |
| 2026-05-03 23:57 | 43.14939 | -84.27685 | 36805 ft | 505 kts | 69° |
| 2026-05-03 23:58 | 43.16891 | -84.19096 | 36803 ft | 505 kts | 69° |
| 2026-05-03 23:58 | 43.18945 | -84.10016 | 36807 ft | 504 kts | 69° |
| 2026-05-03 23:59 | 43.21011 | -84.00850 | 36812 ft | 504 kts | 69° |
| 2026-05-03 23:59 | 43.23051 | -83.91662 | 36804 ft | 506 kts | 72° |
| 2026-05-04 00:00 | 43.23893 | -83.82195 | 36822 ft | 512 kts | 85° |
| 2026-05-04 00:00 | 43.24136 | -83.72656 | 36822 ft | 510 kts | 85° |
| 2026-05-04 00:01 | 43.24372 | -83.62953 | 36832 ft | 508 kts | 85° |
| 2026-05-04 00:01 | 43.24601 | -83.53228 | 36834 ft | 508 kts | 85° |
| 2026-05-04 00:02 | 43.24807 | -83.44150 | 36824 ft | 510 kts | 85° |
| 2026-05-04 00:02 | 43.25017 | -83.34556 | 36828 ft | 510 kts | 86° |
| 2026-05-04 00:03 | 43.25220 | -83.24907 | 36821 ft | 510 kts | 86° |
| 2026-05-04 00:03 | 43.25417 | -83.15155 | 36827 ft | 510 kts | 86° |
| 2026-05-04 00:04 | 43.25599 | -83.05776 | 36816 ft | 510 kts | 86° |
| 2026-05-04 00:04 | 43.25779 | -82.96046 | 36824 ft | 510 kts | 86° |
| 2026-05-04 00:05 | 43.25941 | -82.86904 | 36825 ft | 511 kts | 86° |
| 2026-05-04 00:05 | 43.26105 | -82.77232 | 36821 ft | 511 kts | 86° |
| 2026-05-04 00:06 | 43.26281 | -82.67493 | 36822 ft | 510 kts | 85° |
| 2026-05-04 00:06 | 43.26487 | -82.57857 | 36822 ft | 510 kts | 85° |
| 2026-05-04 00:07 | 43.26684 | -82.48132 | 36819 ft | 510 kts | 85° |
| 2026-05-04 00:07 | 43.26873 | -82.38459 | 36830 ft | 510 kts | 86° |
| 2026-05-04 00:08 | 43.27054 | -82.28713 | 36828 ft | 509 kts | 86° |
| 2026-05-04 00:08 | 43.26370 | -82.19054 | 36824 ft | 513 kts | 103° |
| 2026-05-04 00:09 | 43.24369 | -82.10051 | 36828 ft | 512 kts | 103° |
| 2026-05-04 00:09 | 43.22704 | -82.00697 | 36825 ft | 512 kts | 102° |
| 2026-05-04 00:10 | 43.21068 | -81.91216 | 36832 ft | 512 kts | 102° |
| 2026-05-04 00:10 | 43.19428 | -81.81745 | 36832 ft | 512 kts | 102° |
| 2026-05-04 00:11 | 43.17963 | -81.73332 | 36829 ft | 512 kts | 102° |
| 2026-05-04 00:11 | 43.16294 | -81.63788 | 36838 ft | 513 kts | 102° |
| 2026-05-04 00:12 | 43.14617 | -81.54250 | 36843 ft | 514 kts | 102° |
| 2026-05-04 00:12 | 43.12944 | -81.44786 | 36839 ft | 514 kts | 102° |
| 2026-05-04 00:13 | 43.11257 | -81.35287 | 36845 ft | 513 kts | 102° |
| 2026-05-04 00:13 | 43.09571 | -81.25851 | 36847 ft | 512 kts | 103° |
| 2026-05-04 00:14 | 43.07878 | -81.16419 | 36859 ft | 512 kts | 103° |
| 2026-05-04 00:14 | 43.06500 | -81.06893 | 36866 ft | 509 kts | 92° |
| 2026-05-04 00:15 | 43.06144 | -80.97352 | 36864 ft | 512 kts | 91° |
| 2026-05-04 00:15 | 43.05748 | -80.87666 | 36861 ft | 511 kts | 91° |
| 2026-05-04 00:16 | 43.05392 | -80.79227 | 36859 ft | 511 kts | 91° |
| 2026-05-04 00:16 | 43.04979 | -80.69571 | 36867 ft | 512 kts | 91° |
| 2026-05-04 00:17 | 43.04556 | -80.59875 | 36869 ft | 513 kts | 91° |
| 2026-05-04 00:17 | 43.04118 | -80.50061 | 36865 ft | 513 kts | 91° |
| 2026-05-04 00:18 | 43.03725 | -80.41389 | 36869 ft | 513 kts | 91° |
| 2026-05-04 00:18 | 43.03278 | -80.31696 | 36857 ft | 514 kts | 92° |
| 2026-05-04 00:19 | 43.02822 | -80.21993 | 36874 ft | 514 kts | 92° |
| 2026-05-04 00:19 | 43.02358 | -80.12292 | 36871 ft | 514 kts | 92° |
| 2026-05-04 00:20 | 43.01881 | -80.02519 | 36876 ft | 515 kts | 92° |
| 2026-05-04 00:20 | 43.01401 | -79.92828 | 36873 ft | 513 kts | 92° |
| 2026-05-04 00:21 | 43.00908 | -79.83062 | 36874 ft | 513 kts | 92° |
| 2026-05-04 00:21 | 43.00516 | -79.75401 | 36876 ft | 514 kts | 92° |
| 2026-05-04 00:22 | 43.00014 | -79.65733 | 36874 ft | 512 kts | 92° |
| 2026-05-04 00:22 | 42.99504 | -79.56076 | 36876 ft | 512 kts | 92° |
| 2026-05-04 00:23 | 42.98998 | -79.46635 | 36865 ft | 512 kts | 92° |
| 2026-05-04 00:23 | 42.98472 | -79.36993 | 36866 ft | 513 kts | 92° |
| 2026-05-04 00:24 | 42.97937 | -79.27312 | 36872 ft | 513 kts | 94° |
| 2026-05-04 00:24 | 42.97391 | -79.17606 | 36876 ft | 514 kts | 94° |
| 2026-05-04 00:25 | 42.96841 | -79.07951 | 36879 ft | 513 kts | 94° |
| 2026-05-04 00:25 | 42.96277 | -78.98216 | 36874 ft | 513 kts | 94° |
| 2026-05-04 00:26 | 42.95220 | -78.88656 | 36885 ft | 514 kts | 99° |
| 2026-05-04 00:26 | 42.94210 | -78.80602 | 36877 ft | 514 kts | 99° |
| 2026-05-04 00:27 | 42.93312 | -78.70953 | 36893 ft | 511 kts | 90° |
| 2026-05-04 00:27 | 42.93149 | -78.61309 | 36893 ft | 511 kts | 90° |
| 2026-05-04 00:28 | 42.92968 | -78.51772 | 36888 ft | 512 kts | 90° |
| 2026-05-04 00:28 | 42.92774 | -78.42056 | 36884 ft | 512 kts | 90° |
| 2026-05-04 00:29 | 42.92573 | -78.32409 | 36881 ft | 513 kts | 91° |
| 2026-05-04 00:29 | 42.92364 | -78.22751 | 36881 ft | 512 kts | 91° |
| 2026-05-04 00:30 | 42.92146 | -78.13023 | 36880 ft | 512 kts | 91° |
| 2026-05-04 00:30 | 42.91918 | -78.03289 | 36880 ft | 512 kts | 91° |
| 2026-05-04 00:31 | 42.91685 | -77.93644 | 36878 ft | 513 kts | 91° |
| 2026-05-04 00:31 | 42.91485 | -77.85609 | 36872 ft | 512 kts | 91° |
| 2026-05-04 00:32 | 42.91222 | -77.75397 | 36878 ft | 513 kts | 91° |
| 2026-05-04 00:32 | 42.90963 | -77.65686 | 36887 ft | 513 kts | 91° |
| 2026-05-04 00:33 | 42.90580 | -77.51833 | 36896 ft | 513 kts | 91° |
| 2026-05-04 00:34 | 42.90305 | -77.42209 | 36902 ft | 513 kts | 91° |
| 2026-05-04 00:34 | 42.90019 | -77.32523 | 36897 ft | 513 kts | 92° |
| 2026-05-04 00:35 | 42.89724 | -77.22814 | 36896 ft | 513 kts | 92° |
| 2026-05-04 00:35 | 42.89426 | -77.13124 | 36893 ft | 512 kts | 92° |
| 2026-05-04 00:36 | 42.89136 | -77.03449 | 36892 ft | 512 kts | 92° |
| 2026-05-04 00:36 | 42.88851 | -76.94213 | 36892 ft | 513 kts | 92° |
| 2026-05-04 00:37 | 42.88597 | -76.86138 | 36904 ft | 514 kts | 92° |
| 2026-05-04 00:37 | 42.88283 | -76.76421 | 36904 ft | 514 kts | 92° |
| 2026-05-04 00:38 | 42.87962 | -76.66750 | 36895 ft | 514 kts | 92° |
| 2026-05-04 00:38 | 42.87633 | -76.57060 | 36901 ft | 514 kts | 92° |
| 2026-05-04 00:39 | 42.87309 | -76.47784 | 36899 ft | 514 kts | 92° |
| 2026-05-04 00:39 | 42.86963 | -76.38098 | 36901 ft | 514 kts | 92° |
| 2026-05-04 00:40 | 42.86674 | -76.30160 | 36890 ft | 514 kts | 93° |
| 2026-05-04 00:40 | 42.86309 | -76.20377 | 36881 ft | 514 kts | 92° |
| 2026-05-04 00:41 | 42.85939 | -76.10667 | 36893 ft | 515 kts | 92° |
| 2026-05-04 00:41 | 42.85562 | -76.00979 | 36887 ft | 513 kts | 93° |
| 2026-05-04 00:42 | 42.85205 | -75.92057 | 36895 ft | 515 kts | 93° |
| 2026-05-04 00:42 | 42.84805 | -75.82327 | 36887 ft | 514 kts | 93° |
| 2026-05-04 00:43 | 42.84450 | -75.73844 | 36887 ft | 514 kts | 93° |
| 2026-05-04 00:43 | 42.84035 | -75.64126 | 36887 ft | 513 kts | 93° |
| 2026-05-04 00:44 | 42.83613 | -75.54441 | 36881 ft | 514 kts | 93° |
| 2026-05-04 00:44 | 42.83210 | -75.45351 | 36888 ft | 514 kts | 93° |
| 2026-05-04 00:45 | 42.82767 | -75.35540 | 36888 ft | 515 kts | 93° |
| 2026-05-04 00:45 | 42.82371 | -75.26940 | 36881 ft | 514 kts | 94° |
| 2026-05-04 00:46 | 42.81920 | -75.17287 | 36879 ft | 515 kts | 94° |
| 2026-05-04 00:46 | 42.81456 | -75.07551 | 36876 ft | 515 kts | 94° |
| 2026-05-04 00:47 | 42.81023 | -74.98624 | 36880 ft | 515 kts | 94° |
| 2026-05-04 00:47 | 42.80547 | -74.88955 | 36879 ft | 514 kts | 94° |
| 2026-05-04 00:48 | 42.80076 | -74.79569 | 36885 ft | 515 kts | 94° |
| 2026-05-04 00:48 | 42.79581 | -74.69845 | 36880 ft | 515 kts | 94° |
| 2026-05-04 00:49 | 42.79101 | -74.60585 | 36885 ft | 515 kts | 94° |
| 2026-05-04 00:49 | 42.78598 | -74.51020 | 36886 ft | 515 kts | 94° |
| 2026-05-04 00:50 | 42.78080 | -74.41322 | 36887 ft | 515 kts | 94° |
| 2026-05-04 00:50 | 42.77553 | -74.31626 | 36895 ft | 515 kts | 95° |
| 2026-05-04 00:51 | 42.77060 | -74.22685 | 36884 ft | 514 kts | 94° |
| 2026-05-04 00:51 | 42.76517 | -74.12987 | 36899 ft | 515 kts | 95° |
| 2026-05-04 00:52 | 42.76003 | -74.03937 | 36898 ft | 515 kts | 95° |
| 2026-05-04 00:52 | 42.75441 | -73.94186 | 36900 ft | 515 kts | 95° |
| 2026-05-04 00:53 | 42.74875 | -73.84492 | 36902 ft | 516 kts | 95° |
| 2026-05-04 00:53 | 42.74627 | -73.74964 | 36908 ft | 515 kts | 90° |
| 2026-05-04 00:54 | 42.74587 | -73.65617 | 36582 ft | 520 kts | 90° |
| 2026-05-04 00:54 | 42.74552 | -73.60743 | 36024 ft | 514 kts | 90° |
| 2026-05-04 00:54 | 42.74521 | -73.56737 | 35546 ft | 508 kts | 90° |
| 2026-05-04 00:54 | 42.74485 | -73.52296 | 35034 ft | 501 kts | 90° |
| 2026-05-04 00:55 | 42.74446 | -73.47598 | 34471 ft | 493 kts | 89° |
| 2026-05-04 00:55 | 42.74405 | -73.43018 | 33930 ft | 486 kts | 89° |
| 2026-05-04 00:55 | 42.74362 | -73.38417 | 33416 ft | 479 kts | 89° |
| 2026-05-04 00:55 | 42.74319 | -73.33929 | 32902 ft | 475 kts | 90° |
| 2026-05-04 00:56 | 42.74280 | -73.30086 | 32458 ft | 481 kts | 89° |
| 2026-05-04 00:56 | 42.74233 | -73.25473 | 31912 ft | 483 kts | 89° |
| 2026-05-04 00:56 | 42.74183 | -73.20937 | 31363 ft | 479 kts | 89° |
| 2026-05-04 00:56 | 42.74133 | -73.16419 | 30798 ft | 474 kts | 89° |
| 2026-05-04 00:57 | 42.74052 | -73.11994 | 30234 ft | 465 kts | 92° |
| 2026-05-04 00:57 | 42.73639 | -73.07661 | 29728 ft | 461 kts | 97° |
| 2026-05-04 00:57 | 42.73145 | -73.03364 | 29215 ft | 459 kts | 97° |
| 2026-05-04 00:57 | 42.72652 | -72.99087 | 28700 ft | 458 kts | 97° |
| 2026-05-04 00:58 | 42.72158 | -72.94828 | 28197 ft | 455 kts | 97° |
| 2026-05-04 00:58 | 42.71667 | -72.90594 | 27691 ft | 452 kts | 97° |
| 2026-05-04 00:58 | 42.71257 | -72.87077 | 27281 ft | 450 kts | 97° |
| 2026-05-04 00:58 | 42.70729 | -72.82562 | 26748 ft | 447 kts | 97° |
| 2026-05-04 00:59 | 42.70245 | -72.78435 | 26260 ft | 443 kts | 96° |
| 2026-05-04 00:59 | 42.69761 | -72.74320 | 25773 ft | 440 kts | 96° |
| 2026-05-04 00:59 | 42.69277 | -72.70222 | 25288 ft | 437 kts | 96° |
| 2026-05-04 00:59 | 42.68798 | -72.66174 | 24815 ft | 434 kts | 96° |
| 2026-05-04 01:00 | 42.68419 | -72.62991 | 24466 ft | 430 kts | 96° |
| 2026-05-04 01:00 | 42.67934 | -72.58978 | 24060 ft | 430 kts | 96° |
| 2026-05-04 01:00 | 42.67517 | -72.55533 | 23655 ft | 428 kts | 96° |
| 2026-05-04 01:00 | 42.67034 | -72.51561 | 23187 ft | 425 kts | 96° |
| 2026-05-04 01:01 | 42.66555 | -72.47636 | 22723 ft | 422 kts | 96° |
| 2026-05-04 01:01 | 42.66079 | -72.43735 | 22260 ft | 420 kts | 96° |
| 2026-05-04 01:01 | 42.65603 | -72.39857 | 21801 ft | 417 kts | 96° |
| 2026-05-04 01:01 | 42.65124 | -72.35960 | 21338 ft | 414 kts | 96° |
| 2026-05-04 01:02 | 42.64662 | -72.32211 | 20890 ft | 412 kts | 97° |
| 2026-05-04 01:02 | 42.64223 | -72.28442 | 20404 ft | 410 kts | 96° |
| 2026-05-04 01:02 | 42.63777 | -72.24605 | 19899 ft | 407 kts | 96° |
| 2026-05-04 01:02 | 42.63341 | -72.20852 | 19392 ft | 403 kts | 96° |
| 2026-05-04 01:03 | 42.62906 | -72.17123 | 18894 ft | 400 kts | 96° |
| 2026-05-04 01:03 | 42.62529 | -72.13898 | 18464 ft | 398 kts | 96° |
| 2026-05-04 01:03 | 42.62127 | -72.10462 | 18002 ft | 395 kts | 96° |
| 2026-05-04 01:03 | 42.61737 | -72.07150 | 17555 ft | 391 kts | 96° |
| 2026-05-04 01:04 | 42.61309 | -72.03554 | 17166 ft | 387 kts | 96° |
| 2026-05-04 01:04 | 42.60865 | -71.99950 | 16788 ft | 388 kts | 96° |
| 2026-05-04 01:04 | 42.60444 | -71.96543 | 16391 ft | 386 kts | 96° |
| 2026-05-04 01:04 | 42.59996 | -71.92939 | 15954 ft | 384 kts | 96° |
| 2026-05-04 01:05 | 42.59553 | -71.89373 | 15543 ft | 382 kts | 96° |
| 2026-05-04 01:05 | 42.59108 | -71.85812 | 15117 ft | 380 kts | 96° |
| 2026-05-04 01:05 | 42.58672 | -71.82336 | 14702 ft | 377 kts | 97° |
| 2026-05-04 01:05 | 42.58138 | -71.78871 | 14293 ft | 376 kts | 98° |
| 2026-05-04 01:06 | 42.57595 | -71.75427 | 13887 ft | 374 kts | 98° |
| 2026-05-04 01:06 | 42.57046 | -71.71957 | 13476 ft | 373 kts | 98° |
| 2026-05-04 01:06 | 42.56506 | -71.68538 | 13067 ft | 371 kts | 98° |
| 2026-05-04 01:06 | 42.55966 | -71.65131 | 12660 ft | 368 kts | 98° |
| 2026-05-04 01:07 | 42.55426 | -71.61729 | 12251 ft | 366 kts | 98° |
| 2026-05-04 01:07 | 42.54859 | -71.58395 | 12015 ft | 362 kts | 102° |
| 2026-05-04 01:07 | 42.54170 | -71.55071 | 12039 ft | 364 kts | 102° |
| 2026-05-04 01:07 | 42.53482 | -71.51752 | 11769 ft | 368 kts | 102° |
| 2026-05-04 01:08 | 42.52786 | -71.48395 | 11375 ft | 366 kts | 102° |
| 2026-05-04 01:08 | 42.52108 | -71.45139 | 10976 ft | 362 kts | 102° |
| 2026-05-04 01:08 | 42.51432 | -71.41889 | 10573 ft | 359 kts | 102° |
| 2026-05-04 01:08 | 42.50749 | -71.38608 | 10177 ft | 356 kts | 102° |
| 2026-05-04 01:09 | 42.50105 | -71.35467 | 9995 ft | 338 kts | 102° |
| 2026-05-04 01:09 | 42.49650 | -71.33191 | 9963 ft | 323 kts | 102° |